Time;durP1;ratioP1;P1;durP2;ratioP2;P2;SDS_P1;SDS_P2;PMS_P1;PMS_P2;Temp;Humidity;BMP_temperature;BMP_pressure;BME280_temperature;BME280_humidity;BME280_pressure;Samples;Min_cycle;Max_cycle;Signal;HPM_P1;HPM_P2
2021/12/27 00:02:08;;;;;;;;;;;;;;;4.71;63.33;100140.09;5138970;27;55421;-79
2021/12/27 00:04:34;;;;;;;;;;;;;;;4.75;63.50;100146.00;5143309;27;27056;-79
2021/12/27 00:06:59;;;;;;;;;;;;;;;4.79;64.05;100143.41;5144816;27;54000;-79
2021/12/27 00:09:24;;;;;;;;;;;;;;;4.80;63.31;100139.97;5139078;27;57396;-78
2021/12/27 00:11:49;;;;;;;;;;;;;;;4.83;63.21;100139.94;5139590;27;27044;-79
2021/12/27 00:14:14;;;;;;;;;;;;;;;4.83;62.87;100128.88;5139711;27;27237;-79
2021/12/27 00:16:40;;;;;;;;;;;;;;;4.84;63.71;100131.38;5139594;27;53197;-79
2021/12/27 00:19:05;;;;;;;;;;;;;;;4.83;63.25;100124.59;5140734;27;26803;-79
2021/12/27 00:21:30;;;;;;;;;;;;;;;4.82;63.36;100111.81;5140701;27;26887;-79
2021/12/27 00:23:55;;;;;;;;;;;;;;;4.80;63.42;100114.38;5139950;27;56841;-79
2021/12/27 00:26:20;;;;;;;;;;;;;;;4.80;63.08;100118.66;5139872;27;54681;-79
2021/12/27 00:28:45;;;;;;;;;;;;;;;4.77;62.99;100114.41;5139100;27;56672;-79
2021/12/27 00:31:11;;;;;;;;;;;;;;;4.73;63.53;100111.91;5139042;27;54987;-80
2021/12/27 00:33:36;;;;;;;;;;;;;;;4.70;63.88;100117.94;5139874;27;26798;-79
2021/12/27 00:36:01;;;;;;;;;;;;;;;4.67;63.40;100100.06;5139271;27;33745;-79
2021/12/27 00:38:26;;;;;;;;;;;;;;;4.68;63.39;100099.22;5139188;27;37427;-79
2021/12/27 00:40:51;;;;;;;;;;;;;;;4.70;63.47;100094.91;5143483;27;26760;-79
2021/12/27 00:43:17;;;;;;;;;;;;;;;4.70;63.52;100094.91;5143744;27;36447;-79
2021/12/27 00:45:42;;;;;;;;;;;;;;;4.71;63.46;100082.97;5140310;27;26739;-79
2021/12/27 00:48:07;;;;;;;;;;;;;;;4.71;63.94;100078.69;5139434;27;28025;-79
2021/12/27 00:50:33;;;;;;;;;;;;;;;4.71;63.34;100078.69;5138917;27;53803;-79
2021/12/27 00:52:58;;;;;;;;;;;;;;;4.73;63.72;100066.72;5139736;27;26917;-80
2021/12/27 00:55:23;;;;;;;;;;;;;;;4.73;63.55;100074.41;5138765;27;55129;-79
2021/12/27 00:57:49;;;;;;;;;;;;;;;4.71;63.80;100071.03;5140031;27;26912;-79
2021/12/27 01:00:16;;;;;;;;;;;;;;;4.73;63.65;100071.00;5139864;27;26902;-79
2021/12/27 01:02:42;;;;;;;;;;;;;;;4.72;64.38;100070.13;5139508;27;26950;-78
2021/12/27 01:05:08;;;;;;;;;;;;;;;4.73;64.37;100066.72;5139593;27;26866;-79
2021/12/27 01:07:34;;;;;;;;;;;;;;;4.76;64.46;100069.25;5139545;27;27000;-79
2021/12/27 01:10:19;;;;;;;;;;;;;;;4.81;64.35;100064.91;5139178;27;26820;-78
2021/12/27 01:17:47;;;;;;;;;;;;;;;5.02;64.65;100078.28;5135316;27;26729;-79
2021/12/27 01:20:13;;;;;;;;;;;;;;;5.05;63.80;100073.97;5143663;27;26748;-79
2021/12/27 01:22:39;;;;;;;;;;;;;;;5.06;63.77;100079.94;5139814;27;26875;-79
2021/12/27 01:25:06;;;;;;;;;;;;;;;5.09;64.47;100078.19;5141713;27;26801;-78
2021/12/27 01:27:31;;;;;;;;;;;;;;;5.10;64.38;100077.28;5142304;27;26833;-78
2021/12/27 01:29:56;;;;;;;;;;;;;;;5.10;63.57;100071.34;5139872;27;26808;-79
2021/12/27 01:32:23;;;;;;;;;;;;;;;5.09;63.50;100079.91;5138508;27;26842;-79
2021/12/27 01:34:49;;;;;;;;;;;;;;;5.12;64.59;100079.84;5139037;27;26940;-79
2021/12/27 01:37:17;;;;;;;;;;;;;;;5.15;64.30;100090.88;5138639;27;26831;-79
2021/12/27 01:39:42;;;;;;;;;;;;;;;4.94;63.56;100034.06;5138454;27;26736;-78
2021/12/27 01:42:08;;;;;;;;;;;;;;;5.21;64.53;100077.16;5119354;27;39055;-79
2021/12/27 01:44:33;;;;;;;;;;;;;;;5.23;64.10;100072.84;5138054;27;50551;-79
2021/12/27 01:46:58;;;;;;;;;;;;;;;5.24;63.85;100079.66;5128073;27;28461;-79
2021/12/27 01:49:23;;;;;;;;;;;;;;;5.24;63.38;100074.53;5143901;27;26861;-79
2021/12/27 01:51:49;;;;;;;;;;;;;;;5.26;63.62;100072.78;5142574;27;26847;-79
2021/12/27 01:54:14;;;;;;;;;;;;;;;5.26;63.92;100077.91;5142337;27;26875;-79
2021/12/27 01:56:39;;;;;;;;;;;;;;;5.26;64.30;100077.91;5140904;27;52462;-79
2021/12/27 01:59:05;;;;;;;;;;;;;;;5.26;63.28;100077.91;5141873;27;26820;-79
2021/12/27 02:01:30;;;;;;;;;;;;;;;5.27;63.39;100079.63;5141157;27;43686;-79
2021/12/27 02:03:55;;;;;;;;;;;;;;;5.27;64.30;100069.38;5140785;27;54352;-79
2021/12/27 02:06:21;;;;;;;;;;;;;;;5.28;63.62;100063.41;5141749;27;26846;-79
2021/12/27 02:08:46;;;;;;;;;;;;;;;5.28;63.42;100060.84;5141262;27;26933;-78
2021/12/27 02:11:14;;;;;;;;;;;;;;;5.28;63.94;100055.72;5141331;27;26992;-79
2021/12/27 02:13:43;;;;;;;;;;;;;;;5.26;63.78;100052.31;5142072;27;26872;-80
2021/12/27 02:16:09;;;;;;;;;;;;;;;5.24;63.63;100048.94;5145497;27;26736;-80
2021/12/27 02:18:35;;;;;;;;;;;;;;;5.23;64.14;100047.25;5145074;27;27168;-78
2021/12/27 02:21:01;;;;;;;;;;;;;;;5.23;64.00;100049.81;5145580;27;27512;-78
2021/12/27 02:23:26;;;;;;;;;;;;;;;5.22;64.51;100050.66;5145324;27;26850;-78
2021/12/27 02:25:51;;;;;;;;;;;;;;;5.20;64.32;100049.88;5145062;27;48809;-80
2021/12/27 02:28:17;;;;;;;;;;;;;;;5.21;63.70;100049.00;5145864;27;27093;-79
2021/12/27 02:30:44;;;;;;;;;;;;;;;5.24;64.60;100046.38;5141294;27;26892;-79
2021/12/27 02:33:10;;;;;;;;;;;;;;;5.26;64.64;100048.03;5141285;27;26817;-80
2021/12/27 02:35:38;;;;;;;;;;;;;;;5.27;64.64;100038.66;5148599;27;26921;-80
2021/12/27 02:38:03;;;;;;;;;;;;;;;5.28;64.59;100035.22;5146156;27;26735;-80
2021/12/27 02:40:30;;;;;;;;;;;;;;;5.30;64.67;100029.22;5144774;27;26841;-78
2021/12/27 02:43:01;;;;;;;;;;;;;;;5.31;64.57;100022.38;5144974;27;26973;-78
2021/12/27 02:45:28;;;;;;;;;;;;;;;5.31;64.59;100014.69;5141467;27;26745;-79
2021/12/27 02:47:53;;;;;;;;;;;;;;;5.30;63.83;100023.25;5140809;27;27141;-78
2021/12/27 02:50:19;;;;;;;;;;;;;;;5.31;63.75;100014.69;5140918;27;26974;-80
2021/12/27 02:52:44;;;;;;;;;;;;;;;5.34;64.02;100019.75;5140734;27;26782;-79
2021/12/27 02:55:15;;;;;;;;;;;;;;;5.34;64.25;100009.53;5140411;27;27295;-79
2021/12/27 02:57:40;;;;;;;;;;;;;;;5.37;64.04;100012.03;5140685;27;26550;-79
2021/12/27 03:00:11;;;;;;;;;;;;;;;5.36;64.55;100008.63;5141095;27;26812;-78
2021/12/27 03:02:36;;;;;;;;;;;;;;;5.32;63.62;100001.84;5140455;27;26856;-81
2021/12/27 03:05:03;;;;;;;;;;;;;;;5.31;63.61;100004.47;5140736;27;27012;-79
2021/12/27 03:07:28;;;;;;;;;;;;;;;5.29;63.78;100001.91;5140397;27;26993;-78
2021/12/27 03:09:57;;;;;;;;;;;;;;;5.30;64.52;100002.75;5139427;27;57378;-81
2021/12/27 03:12:22;;;;;;;;;;;;;;;5.31;64.60;100009.56;5140313;27;26825;-81
2021/12/27 03:14:48;;;;;;;;;;;;;;;5.34;63.94;100001.84;5139417;27;46564;-78
2021/12/27 03:17:13;;;;;;;;;;;;;;;5.34;63.99;99999.28;5139597;27;55274;-81
2021/12/27 03:19:38;;;;;;;;;;;;;;;5.36;64.31;99998.38;5140313;27;27055;-79
2021/12/27 03:22:03;;;;;;;;;;;;;;;5.37;64.00;100001.78;5140283;27;26904;-79
2021/12/27 03:24:29;;;;;;;;;;;;;;;5.42;63.90;99997.44;5139297;27;56074;-80
2021/12/27 03:26:54;;;;;;;;;;;;;;;5.43;64.68;99994.00;5139524;27;41789;-80
2021/12/27 03:29:19;;;;;;;;;;;;;;;5.45;64.71;99997.38;5139719;27;53645;-80
2021/12/27 03:31:44;;;;;;;;;;;;;;;5.47;64.86;99995.66;5139964;27;48787;-81
2021/12/27 03:34:09;;;;;;;;;;;;;;;5.50;64.77;99994.75;5140198;27;36744;-80
2021/12/27 03:36:38;;;;;;;;;;;;;;;5.50;64.82;99990.47;5143272;27;26666;-79
2021/12/27 03:39:05;;;;;;;;;;;;;;;5.50;64.65;99995.59;5150223;27;27328;-80
2021/12/27 03:41:30;;;;;;;;;;;;;;;5.49;63.94;99988.78;5140980;27;26974;-81
2021/12/27 03:43:56;;;;;;;;;;;;;;;5.50;64.76;99987.91;5141433;27;30258;-81
2021/12/27 03:46:21;;;;;;;;;;;;;;;5.51;64.40;99984.47;5139919;27;46066;-80
2021/12/27 03:48:46;;;;;;;;;;;;;;;5.52;64.84;99978.47;5140696;27;26960;-80
2021/12/27 03:51:11;;;;;;;;;;;;;;;5.53;64.09;99975.03;5140587;27;26864;-80
2021/12/27 03:53:37;;;;;;;;;;;;;;;5.30;63.91;99931.06;5140081;27;26786;-81
2021/12/27 03:56:02;;;;;;;;;;;;;;;5.54;64.76;99981.88;5139991;27;26748;-81
2021/12/27 03:58:32;;;;;;;;;;;;;;;5.55;64.90;99988.66;5140092;27;27137;-81
2021/12/27 04:03:27;;;;;;;;;;;;;;;5.62;64.08;99984.28;5136430;27;26879;-81
2021/12/27 04:05:52;;;;;;;;;;;;;;;5.63;64.95;99986.81;5139386;27;26729;-80
2021/12/27 04:08:18;;;;;;;;;;;;;;;5.66;63.93;99983.38;5139059;27;26878;-80
2021/12/27 04:10:44;;;;;;;;;;;;;;;5.68;64.82;99985.03;5141455;27;26996;-80
2021/12/27 04:13:09;;;;;;;;;;;;;;;5.69;64.90;99981.59;5142757;27;26730;-78
2021/12/27 04:15:35;;;;;;;;;;;;;;;5.69;64.12;99973.91;5142794;27;27057;-80
2021/12/27 04:18:01;;;;;;;;;;;;;;;5.70;65.03;99962.75;5143212;27;27930;-80
2021/12/27 04:20:26;;;;;;;;;;;;;;;5.73;64.52;99959.31;5143211;27;26795;-80
2021/12/27 04:22:51;;;;;;;;;;;;;;;5.72;64.52;99955.91;5142594;27;26842;-80
2021/12/27 04:25:18;;;;;;;;;;;;;;;5.72;63.90;99961.03;5142534;27;26884;-80
2021/12/27 04:27:43;;;;;;;;;;;;;;;5.72;64.12;99960.19;5141961;27;27897;-80
2021/12/27 04:30:09;;;;;;;;;;;;;;;5.72;64.25;99960.19;5142842;27;26798;-80
2021/12/27 04:32:34;;;;;;;;;;;;;;;5.74;64.95;99959.28;5142199;27;26981;-80
2021/12/27 04:34:59;;;;;;;;;;;;;;;5.74;64.63;99964.41;5142559;27;27023;-80
2021/12/27 04:37:24;;;;;;;;;;;;;;;5.75;64.09;99960.97;5142142;27;33508;-80
2021/12/27 04:39:50;;;;;;;;;;;;;;;5.74;64.90;99955.88;5142748;27;27007;-80
2021/12/27 04:42:15;;;;;;;;;;;;;;;5.71;64.87;99959.34;5142674;27;26725;-80
2021/12/27 04:44:40;;;;;;;;;;;;;;;5.69;63.93;99955.97;5142781;27;26888;-80
2021/12/27 04:47:05;;;;;;;;;;;;;;;5.68;64.80;99949.16;5142588;27;28431;-80
2021/12/27 04:49:31;;;;;;;;;;;;;;;5.65;65.01;99949.22;5142832;27;26756;-81
2021/12/27 04:51:56;;;;;;;;;;;;;;;5.66;65.06;99955.19;5142549;27;27956;-80
2021/12/27 04:54:21;;;;;;;;;;;;;;;5.66;64.58;99950.88;5142928;27;29848;-80
2021/12/27 04:56:47;;;;;;;;;;;;;;;5.67;64.53;99947.47;5141696;27;56535;-78
2021/12/27 04:59:12;;;;;;;;;;;;;;;5.67;64.24;99947.47;5142295;27;26868;-80
2021/12/27 05:01:38;;;;;;;;;;;;;;;5.68;65.21;99949.16;5142925;27;26909;-80
2021/12/27 05:04:03;;;;;;;;;;;;;;;5.67;65.19;99942.34;5142979;27;27009;-80
2021/12/27 05:06:28;;;;;;;;;;;;;;;5.69;64.80;99937.19;5142667;27;27003;-80
2021/12/27 05:08:54;;;;;;;;;;;;;;;5.69;64.75;99935.47;5143814;27;26451;-80
2021/12/27 05:11:22;;;;;;;;;;;;;;;5.70;64.28;99937.16;5151310;27;26721;-80
2021/12/27 05:13:47;;;;;;;;;;;;;;;5.70;65.28;99931.19;5147894;27;26803;-80
2021/12/27 05:16:12;;;;;;;;;;;;;;;5.71;65.40;99928.59;5146731;27;26908;-80
2021/12/27 05:18:38;;;;;;;;;;;;;;;5.72;65.53;99916.63;5145866;27;26850;-80
2021/12/27 05:21:03;;;;;;;;;;;;;;;5.72;64.42;99922.59;5147015;27;27541;-80
2021/12/27 05:23:30;;;;;;;;;;;;;;;5.72;64.86;99927.72;5147512;27;26973;-80
2021/12/27 05:25:55;;;;;;;;;;;;;;;5.73;65.18;99911.50;5147394;27;26943;-80
2021/12/27 05:28:20;;;;;;;;;;;;;;;5.77;65.40;99914.84;5145892;27;54311;-80
2021/12/27 05:30:48;;;;;;;;;;;;;;;5.80;64.64;99907.94;5145371;27;56360;-80
2021/12/27 05:33:13;;;;;;;;;;;;;;;5.82;65.06;99906.16;5145617;27;26752;-80
2021/12/27 05:35:38;;;;;;;;;;;;;;;5.82;65.39;99906.16;5146184;27;27832;-80
2021/12/27 05:38:04;;;;;;;;;;;;;;;5.83;65.32;99901.91;5146761;27;26723;-80
2021/12/27 05:40:29;;;;;;;;;;;;;;;5.84;65.32;99909.56;5145574;27;26791;-80
2021/12/27 05:42:54;;;;;;;;;;;;;;;5.84;64.87;99907.00;5154691;27;26764;-80
2021/12/27 05:45:20;;;;;;;;;;;;;;;5.81;65.80;99904.47;5155779;27;26929;-80
2021/12/27 05:47:45;;;;;;;;;;;;;;;5.79;65.94;99901.13;5150146;27;26542;-80
2021/12/27 05:50:11;;;;;;;;;;;;;;;5.79;64.97;99902.81;5148806;27;26801;-80
2021/12/27 05:52:37;;;;;;;;;;;;;;;5.80;65.44;99899.41;5148717;27;26800;-81
2021/12/27 05:55:03;;;;;;;;;;;;;;;5.80;65.56;99897.69;5147483;27;27616;-80
2021/12/27 05:57:28;;;;;;;;;;;;;;;5.84;65.95;99893.34;5147797;27;27252;-79
2021/12/27 05:59:54;;;;;;;;;;;;;;;5.87;65.70;99892.47;5147432;27;26831;-79
2021/12/27 06:02:20;;;;;;;;;;;;;;;5.90;65.27;99892.38;5147286;27;26890;-79
2021/12/27 06:04:45;;;;;;;;;;;;;;;5.92;65.18;99895.78;5146905;27;26872;-79
2021/12/27 06:07:11;;;;;;;;;;;;;;;5.94;65.56;99884.63;5146135;27;26748;-80
2021/12/27 06:09:36;;;;;;;;;;;;;;;5.97;65.05;99883.69;5144155;27;57105;-79
2021/12/27 06:12:01;;;;;;;;;;;;;;;5.99;66.09;99887.94;5145396;27;35202;-79
2021/12/27 06:14:26;;;;;;;;;;;;;;;5.98;65.35;99891.34;5146347;27;26747;-79
2021/12/27 06:16:51;;;;;;;;;;;;;;;5.97;65.31;99891.38;5145941;27;27111;-79
2021/12/27 06:19:17;;;;;;;;;;;;;;;5.98;65.72;99900.75;5144330;27;56222;-79
2021/12/27 06:21:43;;;;;;;;;;;;;;;6.00;65.88;99891.34;5145947;27;26464;-79
2021/12/27 06:24:08;;;;;;;;;;;;;;;6.01;65.28;99890.44;5145413;27;31808;-79
2021/12/27 06:26:33;;;;;;;;;;;;;;;6.02;65.42;99887.00;5144403;27;55403;-79
2021/12/27 06:28:58;;;;;;;;;;;;;;;6.02;65.59;99892.13;5126218;27;27629;-79
2021/12/27 06:31:23;;;;;;;;;;;;;;;6.02;65.18;99892.13;5145136;27;26710;-79
2021/12/27 06:33:48;;;;;;;;;;;;;;;6.05;65.63;99886.94;5143767;27;56398;-79
2021/12/27 06:36:14;;;;;;;;;;;;;;;6.05;65.83;99877.53;5144855;27;26742;-79
2021/12/27 06:38:40;;;;;;;;;;;;;;;6.08;66.28;99881.75;5144269;27;26943;-79
2021/12/27 06:41:05;;;;;;;;;;;;;;;6.09;65.47;99883.44;5144330;27;33936;-79
2021/12/27 06:43:30;;;;;;;;;;;;;;;6.09;65.36;99878.31;5144538;27;28053;-79
2021/12/27 06:45:56;;;;;;;;;;;;;;;6.07;65.29;99872.38;5143171;27;27040;-79
2021/12/27 06:48:21;;;;;;;;;;;;;;;6.06;65.52;99868.13;5143400;27;27682;-79
2021/12/27 06:50:47;;;;;;;;;;;;;;;6.04;65.68;99869.88;5144476;27;29568;-79
2021/12/27 06:53:12;;;;;;;;;;;;;;;6.05;66.16;99866.44;5142903;27;54561;-79
2021/12/27 06:55:37;;;;;;;;;;;;;;;6.07;65.79;99864.69;5142854;27;55168;-79
2021/12/27 06:58:02;;;;;;;;;;;;;;;6.06;66.34;99868.13;5143875;27;26897;-78
2021/12/27 07:00:27;;;;;;;;;;;;;;;6.04;65.93;99864.75;5143456;27;36174;-79
2021/12/27 07:02:53;;;;;;;;;;;;;;;6.05;66.62;99862.16;5142957;27;56938;-78
2021/12/27 07:05:18;;;;;;;;;;;;;;;6.06;65.68;99868.13;5123951;27;27069;-79
2021/12/27 07:07:43;;;;;;;;;;;;;;;6.04;66.35;99869.88;5141623;27;27726;-79
2021/12/27 07:10:09;;;;;;;;;;;;;;;6.03;66.11;99863.06;5142062;27;26955;-79
2021/12/27 07:12:35;;;;;;;;;;;;;;;6.02;66.08;99866.50;5142377;27;26809;-79
2021/12/27 07:15:00;;;;;;;;;;;;;;;6.03;66.28;99873.34;5141981;27;27040;-79
2021/12/27 07:17:26;;;;;;;;;;;;;;;6.03;66.05;99878.47;5140628;27;28046;-79
2021/12/27 07:19:51;;;;;;;;;;;;;;;5.93;66.10;99859.84;5152163;27;26466;-79
2021/12/27 07:22:16;;;;;;;;;;;;;;;5.98;66.12;99875.13;5147260;27;27272;-79
2021/12/27 07:24:42;;;;;;;;;;;;;;;5.97;66.28;99879.41;5144163;27;26796;-79
2021/12/27 07:27:07;;;;;;;;;;;;;;;5.96;66.56;99887.16;5144415;27;27191;-78
2021/12/27 07:29:32;;;;;;;;;;;;;;;5.98;66.62;99885.38;5144410;27;26830;-79
2021/12/27 07:31:57;;;;;;;;;;;;;;;5.98;66.46;99895.63;5143583;27;26776;-78
2021/12/27 07:34:24;;;;;;;;;;;;;;;5.98;66.88;99895.63;5143877;27;43414;-79
2021/12/27 07:36:51;;;;;;;;;;;;;;;5.87;67.58;99874.53;5142941;27;27287;-79
2021/12/27 07:39:16;;;;;;;;;;;;;;;5.98;67.43;99893.06;5142120;27;27051;-78
2021/12/27 07:41:41;;;;;;;;;;;;;;;5.98;67.68;99891.34;5142252;27;50011;-79
2021/12/27 07:44:07;;;;;;;;;;;;;;;5.95;67.77;99886.31;5142013;27;37549;-79
2021/12/27 07:46:35;;;;;;;;;;;;;;;5.93;66.95;99892.31;5142382;27;27072;-78
2021/12/27 07:49:00;;;;;;;;;;;;;;;5.91;67.59;99894.09;5141033;27;27107;-79
2021/12/27 07:51:25;;;;;;;;;;;;;;;5.90;67.24;99892.38;5141136;27;52699;-78
2021/12/27 07:53:51;;;;;;;;;;;;;;;5.92;67.33;99900.91;5143623;27;26850;-79
2021/12/27 07:56:16;;;;;;;;;;;;;;;5.92;67.11;99890.66;5143207;27;26794;-79
2021/12/27 07:58:41;;;;;;;;;;;;;;;5.92;67.09;99896.63;5143598;27;26993;-79
2021/12/27 08:01:06;;;;;;;;;;;;;;;5.93;67.95;99887.19;5144473;27;27058;-79
2021/12/27 08:03:31;;;;;;;;;;;;;;;5.94;68.15;99888.88;5142784;27;47814;-79
2021/12/27 08:05:57;;;;;;;;;;;;;;;5.94;67.80;99888.88;5143013;27;26791;-79
2021/12/27 08:08:22;;;;;;;;;;;;;;;5.92;67.21;99880.41;5153345;27;26812;-78
2021/12/27 08:10:47;;;;;;;;;;;;;;;5.93;67.88;99877.78;5151734;27;26839;-79
2021/12/27 08:13:12;;;;;;;;;;;;;;;5.91;68.28;99877.00;5146461;27;26825;-79
2021/12/27 08:15:38;;;;;;;;;;;;;;;5.91;67.83;99884.69;5145953;27;27553;-79
2021/12/27 08:18:03;;;;;;;;;;;;;;;5.94;67.50;99888.88;5145474;27;26950;-79
2021/12/27 08:20:28;;;;;;;;;;;;;;;5.95;68.01;99883.75;5144614;27;27517;-80
2021/12/27 08:22:54;;;;;;;;;;;;;;;5.96;67.71;99892.28;5145003;27;26763;-79
2021/12/27 08:25:19;;;;;;;;;;;;;;;5.99;67.75;99887.09;5143901;27;46902;-79
2021/12/27 08:27:44;;;;;;;;;;;;;;;6.01;67.94;99880.19;5143941;27;26758;-79
2021/12/27 08:30:11;;;;;;;;;;;;;;;6.03;68.64;99878.47;5142836;27;27033;-80
2021/12/27 08:32:37;;;;;;;;;;;;;;;6.05;68.26;99879.25;5142018;27;26819;-80
2021/12/27 08:35:02;;;;;;;;;;;;;;;6.07;67.87;99880.09;5142522;27;27964;-79
2021/12/27 08:37:29;;;;;;;;;;;;;;;6.10;67.94;99880.84;5142174;27;26961;-79
2021/12/27 08:39:54;;;;;;;;;;;;;;;6.14;68.48;99879.06;5142843;27;26865;-79
2021/12/27 08:42:19;;;;;;;;;;;;;;;6.15;67.94;99878.16;5141303;27;55082;-79
2021/12/27 08:44:45;;;;;;;;;;;;;;;6.18;68.80;99875.56;5142671;27;27055;-79
2021/12/27 08:47:12;;;;;;;;;;;;;;;6.21;68.72;99867.78;5142271;27;26725;-79
2021/12/27 08:49:37;;;;;;;;;;;;;;;6.24;68.38;99872.84;5142036;27;27709;-79
2021/12/27 08:52:03;;;;;;;;;;;;;;;6.28;68.32;99869.34;5143627;27;26834;-79
2021/12/27 08:54:28;;;;;;;;;;;;;;;6.32;68.31;99860.72;5088222;27;26978;-79
2021/12/27 08:56:53;;;;;;;;;;;;;;;6.36;68.44;99864.88;5143857;27;38992;-79
2021/12/27 08:59:18;;;;;;;;;;;;;;;6.39;69.06;99872.50;5145898;27;26855;-79
2021/12/27 09:01:43;;;;;;;;;;;;;;;6.44;68.12;99868.13;5145795;27;55060;-79
2021/12/27 09:04:09;;;;;;;;;;;;;;;6.50;69.13;99865.41;5145091;27;49255;-78
2021/12/27 09:06:34;;;;;;;;;;;;;;;6.56;68.87;99865.25;5145807;27;26901;-79
2021/12/27 09:09:00;;;;;;;;;;;;;;;6.64;69.12;99865.91;5146783;27;27741;-79
2021/12/27 09:11:26;;;;;;;;;;;;;;;6.70;68.44;99855.50;5145248;27;26903;-78
2021/12/27 09:13:51;;;;;;;;;;;;;;;6.76;68.60;99850.22;5146721;27;26704;-78
2021/12/27 09:16:17;;;;;;;;;;;;;;;6.80;69.07;99851.84;5145324;27;26872;-79
2021/12/27 09:18:42;;;;;;;;;;;;;;;6.86;68.20;99852.56;5144678;27;27077;-79
2021/12/27 09:21:07;;;;;;;;;;;;;;;6.91;68.53;99851.56;5146952;27;26844;-79
2021/12/27 09:23:32;;;;;;;;;;;;;;;6.96;68.47;99848.88;5145536;27;27106;-79
2021/12/27 09:25:57;;;;;;;;;;;;;;;7.02;68.46;99854.69;5145215;27;26823;-79
2021/12/27 09:28:23;;;;;;;;;;;;;;;7.06;68.21;99850.31;5146574;27;33049;-79
2021/12/27 09:30:48;;;;;;;;;;;;;;;7.10;68.22;99841.66;5154610;27;26778;-79
2021/12/27 09:33:13;;;;;;;;;;;;;;;7.15;68.88;99844.97;5150762;27;27876;-79
2021/12/27 09:35:39;;;;;;;;;;;;;;;7.15;68.25;99845.81;5148814;27;26878;-79
2021/12/27 09:38:04;;;;;;;;;;;;;;;7.18;68.51;99839.72;5150907;27;27017;-79
2021/12/27 09:40:29;;;;;;;;;;;;;;;7.22;68.27;99841.34;5156011;27;26433;-79
2021/12/27 09:42:54;;;;;;;;;;;;;;;7.28;68.57;99848.88;5149151;27;26782;-79
2021/12/27 09:45:20;;;;;;;;;;;;;;;7.34;68.83;99840.16;5148169;27;26827;-79
2021/12/27 09:47:47;;;;;;;;;;;;;;;7.38;68.67;99842.63;5148053;27;26745;-79
2021/12/27 09:50:14;;;;;;;;;;;;;;;7.41;68.17;99842.53;5147672;27;26813;-79
2021/12/27 09:52:39;;;;;;;;;;;;;;;7.44;68.44;99852.72;5145710;27;26792;-79
2021/12/27 09:55:05;;;;;;;;;;;;;;;7.50;68.81;99842.25;5147781;27;26414;-79
2021/12/27 09:57:31;;;;;;;;;;;;;;;7.55;68.36;99844.69;5127230;27;27580;-79
2021/12/27 09:59:56;;;;;;;;;;;;;;;7.60;68.64;99850.56;5146237;27;26869;-79
2021/12/27 10:02:23;;;;;;;;;;;;;;;7.64;68.29;99840.16;5146486;27;26840;-79
2021/12/27 10:04:49;;;;;;;;;;;;;;;7.68;68.16;99839.19;5144352;27;27111;-79
2021/12/27 10:07:23;;;;;;;;;;;;;;;7.73;68.62;99839.88;5144062;27;26869;-79
2021/12/27 10:09:53;;;;;;;;;;;;;;;7.76;68.52;99834.66;5144839;27;27037;-79
2021/12/27 10:12:25;;;;;;;;;;;;;;;7.80;68.49;99832.00;5145407;27;26787;-79
2021/12/27 10:14:55;;;;;;;;;;;;;;;7.80;68.42;99834.59;5145110;27;26843;-79
2021/12/27 10:17:23;;;;;;;;;;;;;;;7.77;68.22;99838.91;5145825;27;27360;-79
2021/12/27 10:19:48;;;;;;;;;;;;;;;7.77;68.03;99835.50;5145649;27;26941;-79
2021/12/27 10:22:13;;;;;;;;;;;;;;;7.75;68.16;99822.69;5145296;27;26889;-78
2021/12/27 10:24:39;;;;;;;;;;;;;;;7.74;68.22;99808.16;5143093;27;54852;-78
2021/12/27 10:27:04;;;;;;;;;;;;;;;7.73;67.97;99819.31;5144959;27;27039;-79
2021/12/27 10:29:31;;;;;;;;;;;;;;;7.75;68.33;99822.69;5145508;27;26787;-78
2021/12/27 10:31:59;;;;;;;;;;;;;;;7.75;68.56;99817.56;5145395;27;27026;-78
2021/12/27 10:34:29;;;;;;;;;;;;;;;7.78;68.66;99827.75;5144455;27;26814;-79
2021/12/27 10:36:58;;;;;;;;;;;;;;;7.82;68.48;99817.38;5146521;27;26748;-79
2021/12/27 10:39:27;;;;;;;;;;;;;;;7.84;68.50;99820.72;5145614;27;26818;-78
2021/12/27 10:41:52;;;;;;;;;;;;;;;7.85;68.14;99812.13;5144964;27;26793;-79
2021/12/27 10:44:18;;;;;;;;;;;;;;;7.85;68.49;99807.00;5144678;27;54400;-79
2021/12/27 10:46:43;;;;;;;;;;;;;;;7.88;68.54;99812.88;5145107;27;27097;-78
2021/12/27 10:49:08;;;;;;;;;;;;;;;7.92;68.52;99803.34;5144757;27;34918;-78
2021/12/27 10:51:34;;;;;;;;;;;;;;;7.94;67.90;99807.56;5144872;27;35303;-79
2021/12/27 10:54:00;;;;;;;;;;;;;;;7.96;68.02;99802.38;5145002;27;26850;-79
2021/12/27 10:56:45;;;;;;;;;;;;;;;7.98;68.08;99808.31;5144117;27;26964;-79
2021/12/27 10:59:15;;;;;;;;;;;;;;;8.03;68.00;99811.56;5144867;27;27050;-79
2021/12/27 11:01:40;;;;;;;;;;;;;;;8.02;68.09;99804.78;5145151;27;27254;-79
2021/12/27 11:04:06;;;;;;;;;;;;;;;8.02;68.15;99805.59;5148326;27;26867;-78
2021/12/27 11:06:33;;;;;;;;;;;;;;;8.03;68.17;99798.72;5149954;27;47355;-80
2021/12/27 11:09:00;;;;;;;;;;;;;;;8.03;68.24;99793.56;5104825;27;26664;-80
2021/12/27 11:11:26;;;;;;;;;;;;;;;8.05;68.28;99804.66;5103989;27;27228;-80
2021/12/27 11:13:52;;;;;;;;;;;;;;;8.07;67.84;99793.44;5104319;27;26679;-81
2021/12/27 11:16:18;;;;;;;;;;;;;;;8.12;67.76;99790.72;5103209;27;27736;-80
2021/12/27 11:18:43;;;;;;;;;;;;;;;8.15;68.39;99785.47;5101753;27;26864;-80
2021/12/27 11:21:10;;;;;;;;;;;;;;;8.19;67.97;99792.22;5101061;28;26828;-80
2021/12/27 11:23:36;;;;;;;;;;;;;;;8.23;68.17;99788.66;5100238;27;27208;-80
2021/12/27 11:26:03;;;;;;;;;;;;;;;8.27;68.12;99785.09;5100141;27;27203;-81
2021/12/27 11:28:32;;;;;;;;;;;;;;;8.29;67.98;99788.50;5100512;27;27078;-80
2021/12/27 11:31:00;;;;;;;;;;;;;;;8.31;67.97;99771.28;5101197;27;26852;-78
2021/12/27 11:33:25;;;;;;;;;;;;;;;8.34;67.76;99776.31;5102259;27;26870;-79
2021/12/27 11:35:57;;;;;;;;;;;;;;;8.37;67.88;99776.22;5101904;27;26841;-79
2021/12/27 11:38:38;;;;;;;;;;;;;;;8.37;67.73;99771.06;5102150;28;26505;-80
2021/12/27 11:41:25;;;;;;;;;;;;;;;8.35;67.53;99772.88;5102384;27;27051;-79
2021/12/27 11:43:53;;;;;;;;;;;;;;;8.38;67.73;99767.63;5102272;27;27014;-80
2021/12/27 11:46:19;;;;;;;;;;;;;;;8.41;67.81;99776.97;5104335;27;26948;-80
2021/12/27 11:48:46;;;;;;;;;;;;;;;8.46;67.92;99765.66;5103944;28;26379;-78
2021/12/27 11:51:11;;;;;;;;;;;;;;;8.53;68.02;99767.13;5101485;28;26792;-78
2021/12/27 11:53:53;;;;;;;;;;;;;;;8.59;67.83;99753.19;5100944;27;27020;-78
2021/12/27 11:56:36;;;;;;;;;;;;;;;8.67;67.84;99738.34;5101531;27;26710;-78
2021/12/27 11:59:21;;;;;;;;;;;;;;;8.72;67.69;99742.44;5101644;28;26784;-78
2021/12/27 12:01:47;;;;;;;;;;;;;;;8.68;67.38;99725.41;5099861;28;26886;-78
2021/12/27 12:04:32;;;;;;;;;;;;;;;8.74;67.44;99725.19;5099435;28;26937;-78
2021/12/27 12:06:57;;;;;;;;;;;;;;;8.78;67.42;99719.94;5106668;27;27492;-79
2021/12/27 12:09:22;;;;;;;;;;;;;;;8.80;67.34;99713.00;5143228;27;27039;-79
2021/12/27 12:11:59;;;;;;;;;;;;;;;8.83;67.12;99702.59;5142195;27;31373;-79
2021/12/27 12:14:26;;;;;;;;;;;;;;;8.80;67.04;99713.84;5142251;27;26985;-79
2021/12/27 12:16:51;;;;;;;;;;;;;;;8.79;66.79;99716.47;5142323;27;26968;-79
2021/12/27 12:19:17;;;;;;;;;;;;;;;8.77;67.17;99702.84;5142080;27;32102;-80
2021/12/27 12:21:43;;;;;;;;;;;;;;;8.74;66.79;99694.31;5143909;27;26877;-79
2021/12/27 12:24:11;;;;;;;;;;;;;;;8.71;66.34;99684.13;5142795;27;26933;-79
2021/12/27 12:26:49;;;;;;;;;;;;;;;8.69;66.69;99685.09;5142076;27;27402;-79
2021/12/27 12:29:14;;;;;;;;;;;;;;;8.64;66.76;99687.81;5141466;27;26819;-79
2021/12/27 12:31:39;;;;;;;;;;;;;;;8.61;66.71;99698.22;5143986;27;26929;-79
2021/12/27 12:34:09;;;;;;;;;;;;;;;8.59;66.71;99697.41;5149192;27;55288;-80
2021/12/27 12:36:50;;;;;;;;;;;;;;;8.59;66.84;99700.00;5126172;27;27519;-80
2021/12/27 12:39:16;;;;;;;;;;;;;;;8.59;66.61;99707.72;5143274;27;27174;-80
2021/12/27 12:41:41;;;;;;;;;;;;;;;8.59;67.01;99700.00;5143644;27;26897;-80
2021/12/27 12:44:06;;;;;;;;;;;;;;;8.60;66.85;99711.97;5145281;27;26928;-79
2021/12/27 12:46:46;;;;;;;;;;;;;;;8.59;67.00;99694.00;5144870;27;27023;-80
2021/12/27 12:49:12;;;;;;;;;;;;;;;8.59;67.22;99689.69;5144022;27;26921;-80
2021/12/27 12:51:40;;;;;;;;;;;;;;;8.61;67.38;99698.22;5143188;27;26922;-80
2021/12/27 12:54:07;;;;;;;;;;;;;;;8.63;67.47;99706.72;5143079;27;27018;-80
2021/12/27 12:56:33;;;;;;;;;;;;;;;8.66;67.52;99683.44;5140644;27;27667;-79
2021/12/27 12:58:59;;;;;;;;;;;;;;;8.72;67.54;99679.81;5140569;27;26829;-79